Time;durP1;ratioP1;P1;durP2;ratioP2;P2;SDS_P1;SDS_P2;PMS_P1;PMS_P2;Temp;Humidity;BMP_temperature;BMP_pressure;BME280_temperature;BME280_humidity;BME280_pressure;Samples;Min_cycle;Max_cycle;Signal;HPM_P1;HPM_P2
2023/08/09 00:00:53;;;;;;;6.22;4.40;;;18.80;99.90;;;;;;5075552;28;20021;-71
2023/08/09 00:03:19;;;;;;;7.43;4.20;;;18.80;99.90;;;;;;5074477;28;20020;-71
2023/08/09 00:05:45;;;;;;;5.70;4.22;;;18.80;99.90;;;;;;5075864;28;20036;-71
2023/08/09 00:08:11;;;;;;;7.45;4.43;;;18.80;99.90;;;;;;5075310;28;20060;-71
2023/08/09 00:10:36;;;;;;;5.93;4.50;;;18.80;99.90;;;;;;5074059;28;20024;-71
2023/08/09 00:13:03;;;;;;;7.03;4.32;;;18.80;99.90;;;;;;5075482;28;20461;-71
2023/08/09 00:15:29;;;;;;;6.95;4.68;;;18.80;99.90;;;;;;5074181;28;20032;-71
2023/08/09 00:17:55;;;;;;;7.25;5.13;;;18.70;99.90;;;;;;5075226;28;20031;-71
2023/08/09 00:20:20;;;;;;;7.45;4.75;;;18.70;99.90;;;;;;5075363;28;20055;-71
2023/08/09 00:22:46;;;;;;;8.35;5.13;;;18.80;99.90;;;;;;5075405;28;20384;-71
2023/08/09 00:25:13;;;;;;;6.07;5.35;;;18.80;99.90;;;;;;5075040;28;20021;-70
2023/08/09 00:27:39;;;;;;;10.95;6.18;;;18.80;99.90;;;;;;5075107;28;20035;-71
2023/08/09 00:30:08;;;;;;;9.40;6.03;;;18.80;99.90;;;;;;5073766;28;20036;-71
2023/08/09 00:32:36;;;;;;;8.55;5.95;;;18.80;99.90;;;;;;5075318;28;20096;-71
2023/08/09 00:35:02;;;;;;;8.32;6.15;;;18.80;99.90;;;;;;5075103;28;20060;-71
2023/08/09 00:37:28;;;;;;;8.32;6.60;;;18.70;99.90;;;;;;5073573;28;20063;-71
2023/08/09 00:39:53;;;;;;;8.57;5.05;;;18.70;99.90;;;;;;5074756;28;20081;-71
2023/08/09 00:42:19;;;;;;;5.47;3.90;;;18.70;99.90;;;;;;5074891;28;20035;-71
2023/08/09 00:44:44;;;;;;;4.43;2.15;;;18.70;99.90;;;;;;5075049;28;20020;-71
2023/08/09 00:47:10;;;;;;;1.27;1.10;;;18.70;99.90;;;;;;5074653;28;20178;-71
2023/08/09 00:49:37;;;;;;;1.30;0.80;;;18.60;99.90;;;;;;5074977;28;20501;-71
2023/08/09 00:52:03;;;;;;;1.63;1.05;;;18.60;99.90;;;;;;5073677;28;20475;-71
2023/08/09 00:54:29;;;;;;;1.05;0.70;;;18.60;99.90;;;;;;5074327;28;20126;-71
2023/08/09 00:56:56;;;;;;;1.70;0.75;;;18.60;99.90;;;;;;5074840;28;20389;-71
2023/08/09 00:59:22;;;;;;;1.10;0.60;;;18.60;99.90;;;;;;5074882;28;20021;-71
2023/08/09 01:01:47;;;;;;;1.80;0.63;;;18.40;99.90;;;;;;5073434;28;20029;-71
2023/08/09 01:04:13;;;;;;;1.02;0.30;;;18.50;99.90;;;;;;5074438;28;20028;-71
2023/08/09 01:07:15;;;;;;;1.02;0.38;;;18.50;99.90;;;;;;5074482;28;20078;-71
2023/08/09 01:10:15;;;;;;;1.40;0.32;;;18.50;99.90;;;;;;5074354;28;20035;-71
2023/08/09 01:12:47;;;;;;;1.17;0.30;;;18.50;99.90;;;;;;5074275;28;20495;-71
2023/08/09 01:15:16;;;;;;;0.70;0.50;;;18.40;99.90;;;;;;5074460;28;20059;-71
2023/08/09 01:17:46;;;;;;;0.90;0.50;;;18.40;99.90;;;;;;5074445;28;20362;-71
2023/08/09 01:20:12;;;;;;;0.80;0.63;;;18.50;99.90;;;;;;5074258;28;20028;-70
2023/08/09 01:22:45;;;;;;;1.20;0.70;;;18.40;99.90;;;;;;5073763;28;20081;-71
2023/08/09 01:25:11;;;;;;;1.85;0.80;;;18.40;99.90;;;;;;5073753;28;20089;-71
2023/08/09 01:27:37;;;;;;;1.63;0.80;;;18.40;99.90;;;;;;5074352;28;20028;-72
2023/08/09 01:30:05;;;;;;;1.45;1.05;;;18.40;99.90;;;;;;5074311;28;20382;-71
2023/08/09 01:32:31;;;;;;;1.50;1.00;;;18.40;99.90;;;;;;5073736;28;20021;-71
2023/08/09 01:34:58;;;;;;;3.17;1.00;;;18.40;99.90;;;;;;5074167;28;20052;-71
2023/08/09 01:37:46;;;;;;;1.70;1.10;;;18.40;99.90;;;;;;5073754;28;20074;-72
2023/08/09 01:40:12;;;;;;;1.60;1.33;;;18.40;99.90;;;;;;5073964;28;20025;-71
2023/08/09 01:42:39;;;;;;;1.40;1.23;;;18.40;99.90;;;;;;5073439;28;20230;-71
2023/08/09 01:45:08;;;;;;;2.55;1.50;;;18.40;99.90;;;;;;5073712;28;20078;-71
2023/08/09 01:47:38;;;;;;;2.00;1.55;;;18.40;99.90;;;;;;5072175;28;20420;-71
2023/08/09 01:50:04;;;;;;;2.63;1.88;;;18.40;99.90;;;;;;5073285;28;20416;-71
2023/08/09 01:52:30;;;;;;;2.20;1.88;;;18.30;99.90;;;;;;5071174;28;20017;-71
2023/08/09 01:54:56;;;;;;;2.30;1.55;;;18.30;99.90;;;;;;5073628;28;20036;-71
2023/08/09 01:57:22;;;;;;;2.80;1.70;;;18.40;99.90;;;;;;5073425;28;20103;-71
2023/08/09 01:59:47;;;;;;;1.75;1.42;;;18.40;99.90;;;;;;5073672;28;20024;-71
2023/08/09 02:02:13;;;;;;;1.98;1.63;;;18.40;99.90;;;;;;5073227;28;20017;-71
2023/08/09 02:04:39;;;;;;;1.90;1.70;;;18.40;99.90;;;;;;5073692;28;20020;-71
2023/08/09 02:07:05;;;;;;;3.65;2.03;;;18.30;99.90;;;;;;5072871;28;20377;-71
2023/08/09 02:09:30;;;;;;;2.22;1.90;;;18.30;99.90;;;;;;5073670;28;20102;-71
2023/08/09 02:11:56;;;;;;;2.95;1.95;;;18.30;99.90;;;;;;5073265;28;20048;-71
2023/08/09 02:14:22;;;;;;;1.92;1.73;;;18.30;99.90;;;;;;5073387;28;20047;-71
2023/08/09 02:16:48;;;;;;;3.47;2.05;;;18.30;99.90;;;;;;5073457;28;20024;-71
2023/08/09 02:19:14;;;;;;;4.60;2.13;;;18.30;99.90;;;;;;5073270;28;20028;-71
2023/08/09 02:21:43;;;;;;;2.50;2.30;;;18.30;99.90;;;;;;5072955;28;20473;-71
2023/08/09 02:24:10;;;;;;;2.83;2.05;;;18.30;99.90;;;;;;5073286;28;20477;-71
2023/08/09 02:26:36;;;;;;;3.70;2.88;;;18.30;99.90;;;;;;5073436;28;20024;-71
2023/08/09 02:29:01;;;;;;;2.80;2.60;;;18.30;99.90;;;;;;5073028;28;20027;-70
2023/08/09 02:31:27;;;;;;;3.35;3.05;;;18.30;99.90;;;;;;5071925;28;20024;-71
2023/08/09 02:33:55;;;;;;;3.88;3.17;;;18.30;99.90;;;;;;5072764;28;20054;-71
2023/08/09 02:36:20;;;;;;;3.67;3.20;;;18.30;99.90;;;;;;5072839;28;20561;-71
2023/08/09 02:38:46;;;;;;;4.32;3.85;;;18.30;99.90;;;;;;5072784;28;20052;-71
2023/08/09 02:41:11;;;;;;;3.90;3.50;;;18.30;99.90;;;;;;5073179;28;20036;-71
2023/08/09 02:43:37;;;;;;;5.43;4.55;;;18.30;99.90;;;;;;5071406;28;20020;-71
2023/08/09 02:46:04;;;;;;;5.00;4.50;;;18.30;99.90;;;;;;5071613;28;20119;-71
2023/08/09 02:48:29;;;;;;;4.82;4.40;;;18.20;99.90;;;;;;5072683;28;20032;-72
2023/08/09 02:50:55;;;;;;;5.85;4.88;;;18.20;99.90;;;;;;5071354;28;20077;-71
2023/08/09 02:53:31;;;;;;;5.30;4.80;;;18.20;99.90;;;;;;5072331;28;20029;-71
2023/08/09 02:55:58;;;;;;;5.70;5.20;;;18.20;99.90;;;;;;5072708;28;20522;-71
2023/08/09 02:58:24;;;;;;;5.40;4.90;;;18.20;99.90;;;;;;5071630;28;20049;-71
2023/08/09 03:00:49;;;;;;;5.88;5.40;;;18.20;99.90;;;;;;5072914;28;20020;-71
2023/08/09 03:03:15;;;;;;;6.43;5.82;;;18.20;99.90;;;;;;5072475;28;20047;-71
2023/08/09 03:05:40;;;;;;;6.05;5.57;;;18.20;99.90;;;;;;5072598;28;20385;-71
2023/08/09 03:08:06;;;;;;;7.60;6.88;;;18.20;99.90;;;;;;5072732;28;20078;-70
2023/08/09 03:10:31;;;;;;;6.88;6.28;;;18.10;99.90;;;;;;5072565;28;20029;-71
2023/08/09 03:12:57;;;;;;;6.65;5.82;;;18.20;99.90;;;;;;5072728;28;20426;-71
2023/08/09 03:15:23;;;;;;;6.57;5.97;;;18.10;99.90;;;;;;5072813;28;20032;-71
2023/08/09 03:17:49;;;;;;;7.32;6.40;;;18.10;99.90;;;;;;5070947;28;20105;-71
2023/08/09 03:20:16;;;;;;;7.05;6.45;;;18.10;99.90;;;;;;5071068;28;20123;-71
2023/08/09 03:22:45;;;;;;;9.32;8.52;;;18.10;99.90;;;;;;5072744;28;20028;-71
2023/08/09 03:25:12;;;;;;;9.45;8.55;;;18.10;99.90;;;;;;5072448;28;20029;-71
2023/08/09 03:27:38;;;;;;;10.30;8.55;;;18.10;99.90;;;;;;5072552;28;20094;-71
2023/08/09 03:30:08;;;;;;;8.00;7.40;;;18.10;99.90;;;;;;5072637;28;20129;-70
2023/08/09 03:32:35;;;;;;;8.48;7.78;;;18.10;99.90;;;;;;5072294;28;20423;-71
2023/08/09 03:35:01;;;;;;;8.73;7.78;;;18.10;99.90;;;;;;5072432;28;20116;-71
2023/08/09 03:37:27;;;;;;;7.95;7.28;;;18.00;99.90;;;;;;5072282;28;20517;-72
2023/08/09 03:39:53;;;;;;;9.15;8.43;;;18.00;99.90;;;;;;5072364;28;20028;-71
2023/08/09 03:42:18;;;;;;;9.60;8.60;;;18.00;99.90;;;;;;5072355;28;20029;-71
2023/08/09 03:44:44;;;;;;;9.50;8.60;;;18.00;99.90;;;;;;5072590;28;20362;-71
2023/08/09 03:47:10;;;;;;;9.38;8.48;;;18.00;99.90;;;;;;5072163;28;21557;-71
2023/08/09 03:49:35;;;;;;;10.40;9.38;;;18.00;99.90;;;;;;5074572;28;20170;-71
2023/08/09 03:52:01;;;;;;;9.90;8.90;;;18.00;99.90;;;;;;5075884;28;20028;-71
2023/08/09 03:54:28;;;;;;;11.35;9.95;;;18.00;99.90;;;;;;5075820;28;20044;-71
2023/08/09 03:56:53;;;;;;;9.57;8.70;;;18.00;99.90;;;;;;5076246;28;20016;-71
2023/08/09 03:59:19;;;;;;;10.05;9.15;;;18.00;99.90;;;;;;5075322;28;20039;-71
2023/08/09 04:01:44;;;;;;;11.15;10.15;;;17.90;99.90;;;;;;5075507;28;20059;-70
2023/08/09 04:04:10;;;;;;;11.20;10.25;;;17.90;99.90;;;;;;5075755;28;20078;-71
2023/08/09 04:06:35;;;;;;;11.20;10.07;;;17.90;99.90;;;;;;5075824;28;20060;-70
2023/08/09 04:09:01;;;;;;;10.50;9.50;;;17.90;99.90;;;;;;5075355;28;20032;-71
2023/08/09 04:11:29;;;;;;;9.60;8.63;;;17.90;99.90;;;;;;5075873;28;20536;-70
2023/08/09 04:13:55;;;;;;;11.43;10.32;;;17.80;99.90;;;;;;5075719;28;20028;-71
2023/08/09 04:16:20;;;;;;;10.90;9.45;;;17.90;99.90;;;;;;5075148;28;20025;-71
2023/08/09 04:18:46;;;;;;;10.10;9.15;;;17.90;99.90;;;;;;5075395;28;20036;-71
2023/08/09 04:21:11;;;;;;;10.85;9.88;;;17.90;99.90;;;;;;5074027;28;20036;-71
2023/08/09 04:23:37;;;;;;;9.05;8.25;;;17.80;99.90;;;;;;5075365;28;20025;-71
2023/08/09 04:26:03;;;;;;;10.18;9.25;;;17.80;99.90;;;;;;5074059;28;20021;-71
2023/08/09 04:28:29;;;;;;;9.75;8.85;;;17.80;99.90;;;;;;5075140;28;20470;-71
2023/08/09 04:30:55;;;;;;;9.68;8.77;;;17.80;99.90;;;;;;5075137;28;20535;-71
2023/08/09 04:33:22;;;;;;;9.88;8.77;;;17.80;99.90;;;;;;5075325;28;20025;-71
2023/08/09 04:35:48;;;;;;;10.07;9.07;;;17.80;99.90;;;;;;5075054;28;20082;-71
2023/08/09 04:38:14;;;;;;;10.07;8.27;;;17.70;99.90;;;;;;5073738;28;20028;-71
2023/08/09 04:40:39;;;;;;;7.85;7.15;;;17.80;99.90;;;;;;5075052;28;20423;-71
2023/08/09 04:43:05;;;;;;;7.55;6.72;;;17.80;99.90;;;;;;5075170;28;20056;-71
2023/08/09 04:45:32;;;;;;;8.35;7.55;;;17.90;99.90;;;;;;5074767;28;20031;-71
2023/08/09 04:47:58;;;;;;;7.70;6.93;;;18.00;99.90;;;;;;5073153;28;20032;-72
2023/08/09 04:50:24;;;;;;;7.75;7.10;;;18.00;99.90;;;;;;5074622;28;20466;-71
2023/08/09 04:52:50;;;;;;;7.47;6.78;;;18.00;99.90;;;;;;5075096;28;20028;-71
2023/08/09 04:55:16;;;;;;;6.82;6.22;;;18.10;99.90;;;;;;5074957;28;20036;-71
2023/08/09 04:57:42;;;;;;;6.78;6.18;;;18.10;99.90;;;;;;5074705;28;20017;-71
2023/08/09 05:00:12;;;;;;;7.13;6.53;;;18.00;99.90;;;;;;5078904;28;20150;-73
2023/08/09 05:02:38;;;;;;;8.23;7.50;;;18.00;99.90;;;;;;5064428;28;20032;-71
2023/08/09 05:05:05;;;;;;;9.50;8.60;;;18.00;99.90;;;;;;5058307;28;20036;-70
2023/08/09 05:07:30;;;;;;;9.55;8.65;;;17.90;99.90;;;;;;5072772;28;20025;-70
2023/08/09 05:09:56;;;;;;;9.52;8.65;;;17.80;99.90;;;;;;5074049;28;20056;-71
2023/08/09 05:12:21;;;;;;;8.40;7.65;;;17.80;99.90;;;;;;5074284;28;20051;-71
2023/08/09 05:14:47;;;;;;;11.18;8.48;;;17.80;99.90;;;;;;5074258;28;20385;-70
2023/08/09 05:17:12;;;;;;;12.38;9.38;;;17.80;99.90;;;;;;5073187;28;20032;-70
2023/08/09 05:19:38;;;;;;;10.65;9.40;;;17.80;99.90;;;;;;5074094;28;20028;-71
2023/08/09 05:22:04;;;;;;;9.88;8.88;;;17.70;99.90;;;;;;5074219;28;20039;-71
2023/08/09 05:24:29;;;;;;;9.65;8.65;;;17.70;99.90;;;;;;5074269;28;20099;-71
2023/08/09 05:26:55;;;;;;;11.35;9.63;;;17.80;99.90;;;;;;5074407;28;20052;-70
2023/08/09 05:29:20;;;;;;;9.82;8.80;;;17.70;99.90;;;;;;5073802;28;20363;-71
2023/08/09 05:31:46;;;;;;;10.27;8.80;;;17.70;99.90;;;;;;5073609;28;20090;-70
2023/08/09 05:34:11;;;;;;;8.63;7.82;;;17.70;99.90;;;;;;5073937;28;20075;-70
2023/08/09 05:36:37;;;;;;;8.77;7.97;;;17.70;99.90;;;;;;5072628;28;20025;-70
2023/08/09 05:39:03;;;;;;;7.25;6.65;;;17.70;99.90;;;;;;5073634;28;20355;-71
2023/08/09 05:41:29;;;;;;;6.82;6.22;;;17.70;99.90;;;;;;5073666;28;20051;-70
2023/08/09 05:43:54;;;;;;;7.05;6.35;;;17.70;99.90;;;;;;5073701;28;20466;-70
2023/08/09 05:46:20;;;;;;;8.27;7.47;;;17.70;99.90;;;;;;5073692;28;20028;-70
2023/08/09 05:48:46;;;;;;;7.10;6.40;;;17.80;99.90;;;;;;5073474;28;20028;-70
2023/08/09 05:51:11;;;;;;;6.93;6.28;;;17.80;99.90;;;;;;5073444;28;20037;-70
2023/08/09 05:53:37;;;;;;;6.65;6.05;;;17.80;99.90;;;;;;5073662;28;20113;-70
2023/08/09 05:56:03;;;;;;;7.43;5.85;;;17.80;99.90;;;;;;5073815;28;20051;-70
2023/08/09 05:58:28;;;;;;;6.78;6.18;;;17.80;99.90;;;;;;5072849;28;20020;-70
2023/08/09 06:00:54;;;;;;;6.97;6.05;;;17.90;99.90;;;;;;5073423;28;20473;-71
2023/08/09 06:03:20;;;;;;;7.25;6.03;;;17.90;99.90;;;;;;5073500;28;20035;-70
2023/08/09 06:05:46;;;;;;;5.57;5.07;;;18.00;99.90;;;;;;5073498;28;20500;-70
2023/08/09 06:08:11;;;;;;;6.38;5.80;;;18.00;99.90;;;;;;5073332;28;20531;-71
2023/08/09 06:10:37;;;;;;;6.30;5.70;;;18.20;99.90;;;;;;5073296;28;20041;-71
2023/08/09 06:13:03;;;;;;;5.90;5.30;;;18.20;99.90;;;;;;5072774;28;20023;-71
2023/08/09 06:15:29;;;;;;;5.97;5.47;;;18.30;99.90;;;;;;5073310;28;20032;-71
2023/08/09 06:17:54;;;;;;;5.75;4.93;;;18.40;99.90;;;;;;5073296;28;20028;-71
2023/08/09 06:20:21;;;;;;;5.47;4.93;;;18.40;99.90;;;;;;5073111;28;20045;-71
2023/08/09 06:22:47;;;;;;;5.03;4.63;;;18.40;99.90;;;;;;5073226;28;20056;-71
2023/08/09 06:25:12;;;;;;;4.10;3.70;;;18.50;99.90;;;;;;5073469;28;20039;-71
2023/08/09 06:27:38;;;;;;;4.40;4.00;;;18.50;99.90;;;;;;5072924;28;20017;-71
2023/08/09 06:30:06;;;;;;;3.70;3.40;;;18.50;99.90;;;;;;5072578;28;20032;-71
2023/08/09 06:32:32;;;;;;;5.18;3.55;;;18.50;99.90;;;;;;5067143;28;20028;-70
2023/08/09 06:34:58;;;;;;;4.22;3.67;;;18.60;99.90;;;;;;5070810;28;20078;-70
2023/08/09 06:37:24;;;;;;;3.83;3.53;;;18.60;99.90;;;;;;5082556;28;20070;-70
2023/08/09 06:39:49;;;;;;;4.63;3.67;;;18.60;99.90;;;;;;5074396;28;20025;-70
2023/08/09 06:42:16;;;;;;;3.80;3.50;;;18.70;99.90;;;;;;5072710;28;20024;-71
2023/08/09 06:44:42;;;;;;;4.35;3.75;;;18.70;99.90;;;;;;5072173;28;20470;-70
2023/08/09 06:47:08;;;;;;;4.93;4.10;;;18.70;99.90;;;;;;5070807;28;20036;-70
2023/08/09 06:49:34;;;;;;;5.07;3.40;;;18.70;99.90;;;;;;5070869;28;20473;-71
2023/08/09 06:52:00;;;;;;;4.45;4.05;;;18.70;99.90;;;;;;5073040;28;20021;-71
2023/08/09 06:54:27;;;;;;;4.85;3.75;;;18.70;99.90;;;;;;5072751;28;20116;-70
2023/08/09 06:56:53;;;;;;;4.03;3.67;;;18.80;99.90;;;;;;5072645;28;20070;-70
2023/08/09 06:59:19;;;;;;;2.92;2.63;;;18.80;99.90;;;;;;5072462;28;20028;-71
2023/08/09 07:01:47;;;;;;;6.95;5.10;;;18.80;99.90;;;;;;5072565;28;20029;-71
2023/08/09 07:04:13;;;;;;;5.80;5.28;;;18.90;99.90;;;;;;5073065;28;20032;-71
2023/08/09 07:06:39;;;;;;;7.80;6.32;;;18.90;99.90;;;;;;5071565;28;20381;-71
2023/08/09 07:09:05;;;;;;;5.85;5.07;;;18.90;99.90;;;;;;5072325;28;20020;-71
2023/08/09 07:11:31;;;;;;;4.93;3.67;;;18.90;99.90;;;;;;5072189;28;20108;-71
2023/08/09 07:13:56;;;;;;;5.20;3.30;;;19.00;99.90;;;;;;5072684;28;20060;-71
2023/08/09 07:16:22;;;;;;;4.07;3.00;;;19.00;99.90;;;;;;5072767;28;20020;-71
2023/08/09 07:18:47;;;;;;;5.43;3.83;;;19.00;99.90;;;;;;5072481;28;20028;-71
2023/08/09 07:21:13;;;;;;;3.42;2.33;;;19.10;99.90;;;;;;5072694;28;20040;-71
2023/08/09 07:23:39;;;;;;;8.82;5.80;;;19.10;99.90;;;;;;5073952;28;20023;-71
2023/08/09 07:26:04;;;;;;;5.30;4.80;;;19.10;99.90;;;;;;5076115;28;20021;-71
2023/08/09 07:28:30;;;;;;;5.05;3.33;;;19.20;99.90;;;;;;5075144;28;20386;-71
2023/08/09 07:30:56;;;;;;;4.20;3.45;;;19.10;99.90;;;;;;5075210;28;20017;-71
2023/08/09 07:33:21;;;;;;;3.33;2.70;;;19.20;99.90;;;;;;5076372;28;20036;-70
2023/08/09 07:35:48;;;;;;;4.75;4.32;;;19.20;99.90;;;;;;5076167;28;20047;-70
2023/08/09 07:38:15;;;;;;;4.47;4.07;;;19.20;99.90;;;;;;5075198;28;20016;-70
2023/08/09 07:40:40;;;;;;;6.07;5.55;;;19.20;99.90;;;;;;5075938;28;20031;-71
2023/08/09 07:43:06;;;;;;;4.72;4.30;;;19.20;99.90;;;;;;5076375;28;20108;-70
2023/08/09 07:45:32;;;;;;;5.03;4.53;;;19.30;99.90;;;;;;5075731;28;20473;-70
2023/08/09 07:47:58;;;;;;;4.93;4.45;;;19.30;99.90;;;;;;5076061;28;20028;-71
2023/08/09 07:50:23;;;;;;;4.55;3.65;;;19.30;99.90;;;;;;5075876;28;20040;-70
2023/08/09 07:52:49;;;;;;;4.30;3.13;;;19.40;99.90;;;;;;5074798;28;20017;-70
2023/08/09 07:55:15;;;;;;;3.40;3.10;;;19.40;99.90;;;;;;5075643;28;20036;-70
2023/08/09 07:57:40;;;;;;;3.80;2.60;;;19.40;99.90;;;;;;5073449;28;20028;-70
2023/08/09 08:00:17;;;;;;;3.92;3.17;;;19.50;99.90;;;;;;5077720;28;20024;-70
2023/08/09 08:02:44;;;;;;;7.35;6.53;;;19.50;99.90;;;;;;5079363;28;20468;-71
2023/08/09 08:05:11;;;;;;;4.22;3.00;;;19.60;99.90;;;;;;5075507;28;20060;-71
2023/08/09 08:07:38;;;;;;;6.43;3.45;;;19.60;99.90;;;;;;5069797;28;20046;-71
2023/08/09 08:10:08;;;;;;;5.25;3.65;;;19.60;99.90;;;;;;5075821;28;20101;-71
2023/08/09 08:12:34;;;;;;;6.05;3.10;;;19.70;99.90;;;;;;5064873;28;20029;-71
2023/08/09 08:15:00;;;;;;;7.65;6.95;;;19.70;99.90;;;;;;5074259;28;20060;-70
2023/08/09 08:17:26;;;;;;;4.85;3.72;;;19.70;99.90;;;;;;5075399;28;20103;-71
2023/08/09 08:19:52;;;;;;;5.57;4.60;;;19.80;99.90;;;;;;5075216;28;20083;-71
2023/08/09 08:22:18;;;;;;;5.53;4.68;;;19.80;99.90;;;;;;5075665;28;20021;-71
2023/08/09 08:24:44;;;;;;;4.88;4.47;;;19.80;99.90;;;;;;5072845;28;20461;-71
2023/08/09 08:27:09;;;;;;;5.68;4.20;;;19.80;99.90;;;;;;5075410;28;20025;-71
2023/08/09 08:29:35;;;;;;;5.57;5.07;;;19.90;99.90;;;;;;5072831;28;20020;-71
2023/08/09 08:32:01;;;;;;;6.20;3.95;;;19.90;99.90;;;;;;5075021;28;20027;-71
2023/08/09 08:34:31;;;;;;;6.95;4.45;;;20.00;99.90;;;;;;5075333;28;20044;-71
2023/08/09 08:36:58;;;;;;;4.15;3.72;;;20.00;99.90;;;;;;5073620;28;20477;-71
2023/08/09 08:39:23;;;;;;;4.50;3.97;;;20.00;99.90;;;;;;5074508;28;20037;-71
2023/08/09 08:41:50;;;;;;;4.72;4.22;;;20.00;99.90;;;;;;5073829;28;20111;-71
2023/08/09 08:44:16;;;;;;;5.78;4.38;;;20.10;99.90;;;;;;5091404;28;20103;-72
2023/08/09 08:46:42;;;;;;;5.15;4.07;;;20.10;99.90;;;;;;5073060;28;20021;-71
2023/08/09 08:49:14;;;;;;;4.38;3.97;;;20.10;99.90;;;;;;5074887;28;20024;-71
2023/08/09 08:51:43;;;;;;;4.63;4.22;;;20.10;99.90;;;;;;5074703;28;20029;-71
2023/08/09 08:54:10;;;;;;;5.13;4.63;;;20.10;99.90;;;;;;5074897;28;20017;-71
2023/08/09 08:56:36;;;;;;;7.00;6.28;;;20.20;99.90;;;;;;5073575;28;20029;-71
2023/08/09 08:59:02;;;;;;;8.05;6.30;;;20.20;99.90;;;;;;5070659;28;20021;-71
2023/08/09 09:01:28;;;;;;;7.22;6.22;;;20.30;99.90;;;;;;5074113;28;20097;-71
2023/08/09 09:03:54;;;;;;;8.70;6.25;;;20.30;99.90;;;;;;5068110;28;20032;-71
2023/08/09 09:06:20;;;;;;;7.18;6.47;;;20.30;99.90;;;;;;5071669;28;20389;-70
2023/08/09 09:08:52;;;;;;;8.60;7.38;;;20.30;99.90;;;;;;5071590;28;20024;-71
2023/08/09 09:11:18;;;;;;;;;;;20.40;99.90;;;;;;5072721;28;20492;-71
2023/08/09 09:13:47;;;;;;;6.53;5.80;;;20.40;99.90;;;;;;5073236;28;19908;-71
2023/08/09 09:16:15;;;;;;;7.88;7.13;;;20.40;99.90;;;;;;5064574;28;20040;-71
2023/08/09 09:18:41;;;;;;;7.30;6.70;;;20.40;99.90;;;;;;5073825;28;20427;-71
2023/08/09 09:21:10;;;;;;;5.90;5.22;;;20.40;99.90;;;;;;5072714;28;20493;-71
2023/08/09 09:23:37;;;;;;;14.50;7.68;;;20.40;99.90;;;;;;5072096;28;20032;-73
2023/08/09 09:26:23;;;;;;;10.68;6.20;;;20.60;99.90;;;;;;5070514;28;20067;-73
2023/08/09 09:28:49;;;;;;;6.28;4.95;;;20.50;99.90;;;;;;5060189;28;20026;-74
2023/08/09 09:31:19;;;;;;;6.30;4.07;;;20.50;99.90;;;;;;5065111;28;20483;-75
2023/08/09 09:33:49;;;;;;;5.32;4.40;;;20.60;99.90;;;;;;5072801;28;20025;-75
2023/08/09 09:36:17;;;;;;;7.75;3.85;;;20.60;99.90;;;;;;5069222;28;20043;-76
2023/08/09 09:38:43;;;;;;;4.03;3.22;;;20.60;99.90;;;;;;5070308;28;20079;-73
2023/08/09 09:41:10;;;;;;;6.78;4.03;;;20.60;99.90;;;;;;5070038;28;20041;-75
2023/08/09 09:43:42;;;;;;;4.63;3.15;;;20.60;99.90;;;;;;5072374;28;20040;-75
2023/08/09 09:46:22;;;;;;;5.57;3.28;;;20.60;99.90;;;;;;5072213;28;20036;-73
2023/08/09 09:48:49;;;;;;;4.22;2.80;;;20.60;99.90;;;;;;5072074;28;20036;-74
2023/08/09 09:51:18;;;;;;;6.10;2.55;;;20.70;99.90;;;;;;5071475;28;20031;-73
2023/08/09 09:53:45;;;;;;;5.15;2.05;;;20.70;99.90;;;;;;5071755;28;20362;-73
2023/08/09 09:56:11;;;;;;;4.50;1.73;;;20.70;99.90;;;;;;5063152;28;20041;-71
2023/08/09 09:58:37;;;;;;;3.58;1.75;;;20.70;99.90;;;;;;5067258;28;20012;-73
2023/08/09 10:01:06;;;;;;;4.28;1.98;;;20.70;99.90;;;;;;5072440;28;20028;-72
2023/08/09 10:03:33;;;;;;;4.72;2.38;;;20.70;99.90;;;;;;5072585;28;20031;-73
2023/08/09 10:06:00;;;;;;;1.80;1.38;;;20.70;99.90;;;;;;5071991;28;20121;-73
2023/08/09 10:08:28;;;;;;;2.92;1.50;;;20.70;99.90;;;;;;5065460;28;20028;-76
2023/08/09 10:10:56;;;;;;;2.45;1.40;;;20.80;99.90;;;;;;5072377;28;20462;-74
2023/08/09 10:13:24;;;;;;;2.13;1.27;;;20.80;99.90;;;;;;5071641;28;20024;-76
2023/08/09 10:16:03;;;;;;;4.15;1.30;;;20.80;99.90;;;;;;5072315;28;20042;-73
2023/08/09 10:18:49;;;;;;;5.18;1.50;;;20.90;99.90;;;;;;5069758;28;20048;-74
2023/08/09 10:21:17;;;;;;;2.60;0.68;;;20.80;99.90;;;;;;5083744;28;20081;-73
2023/08/09 10:24:04;;;;;;;2.33;0.70;;;20.90;99.90;;;;;;5072202;28;20012;-73
2023/08/09 10:26:31;;;;;;;2.17;0.80;;;20.90;99.60;;;;;;5073111;28;20025;-73
2023/08/09 10:29:07;;;;;;;2.35;0.95;;;21.00;99.70;;;;;;5072382;28;20023;-72
2023/08/09 10:31:54;;;;;;;4.38;1.10;;;20.90;99.90;;;;;;5073251;28;20430;-73
2023/08/09 10:34:22;;;;;;;4.32;1.00;;;21.00;99.90;;;;;;5068983;28;20059;-72
2023/08/09 10:36:53;;;;;;;2.83;0.93;;;21.00;99.90;;;;;;5071072;28;20024;-72
2023/08/09 10:39:21;;;;;;;2.70;0.75;;;21.00;99.90;;;;;;5066958;28;20694;-73
2023/08/09 10:42:21;;;;;;;2.88;1.00;;;21.00;99.90;;;;;;5072408;28;20104;-72
2023/08/09 10:45:30;;;;;;;3.30;0.63;;;21.00;99.90;;;;;;5069983;28;20103;-72
2023/08/09 10:48:16;;;;;;;1.67;0.60;;;21.00;99.70;;;;;;5069179;28;20040;-72
2023/08/09 10:51:02;;;;;;;3.08;0.70;;;21.00;99.70;;;;;;5069522;28;20500;-72
2023/08/09 10:54:22;;;;;;;2.65;0.80;;;21.10;99.90;;;;;;5067194;28;20071;-72
2023/08/09 10:56:55;;;;;;;4.30;1.20;;;21.10;99.60;;;;;;5053320;28;20497;-72
2023/08/09 11:02:48;;;;;;;3.05;1.08;;;21.10;99.40;;;;;;5051967;28;20128;-74
2023/08/09 11:05:16;;;;;;;5.13;1.40;;;21.10;99.20;;;;;;5049640;28;20056;-75
2023/08/09 11:07:43;;;;;;;2.17;0.68;;;21.20;98.60;;;;;;5044735;28;20024;-73
2023/08/09 11:10:09;;;;;;;5.43;1.77;;;21.20;98.20;;;;;;5050507;28;20040;-74
2023/08/09 11:12:35;;;;;;;2.95;0.90;;;21.20;99.60;;;;;;5055119;28;20013;-73
2023/08/09 11:15:01;;;;;;;3.67;1.10;;;21.20;99.70;;;;;;5051913;28;20037;-74
2023/08/09 11:17:27;;;;;;;3.15;1.20;;;21.20;99.90;;;;;;5053065;28;20021;-73
2023/08/09 11:19:53;;;;;;;5.25;1.50;;;21.20;99.90;;;;;;5055944;28;20036;-73
2023/08/09 11:22:19;;;;;;;5.00;1.13;;;21.20;99.90;;;;;;5055603;28;20078;-73
2023/08/09 11:24:45;;;;;;;3.75;0.93;;;21.20;99.20;;;;;;5054442;28;20025;-73
2023/08/09 11:27:11;;;;;;;3.10;0.98;;;21.20;99.00;;;;;;5054495;28;20025;-73
2023/08/09 11:29:37;;;;;;;4.45;0.95;;;21.30;98.00;;;;;;5054788;28;20155;-72
2023/08/09 11:32:04;;;;;;;8.43;2.10;;;21.30;98.20;;;;;;5055583;28;20025;-73
2023/08/09 11:34:30;;;;;;;12.02;2.55;;;21.30;99.10;;;;;;5055215;28;20347;-73
2023/08/09 11:36:56;;;;;;;9.73;2.88;;;21.30;99.80;;;;;;5052353;28;20036;-73
2023/08/09 11:39:24;;;;;;;6.13;2.35;;;21.30;99.90;;;;;;5055268;28;20482;-73
2023/08/09 11:41:50;;;;;;;8.18;2.80;;;21.30;99.90;;;;;;5055418;28;20060;-72
2023/08/09 11:44:20;;;;;;;9.10;2.58;;;21.30;99.90;;;;;;5054330;28;20025;-72
2023/08/09 11:46:46;;;;;;;7.50;2.03;;;21.40;99.90;;;;;;5054472;28;20104;-73
2023/08/09 11:49:12;;;;;;;6.35;2.30;;;21.40;99.20;;;;;;5055414;28;20068;-73
2023/08/09 11:51:38;;;;;;;5.30;2.00;;;21.40;99.90;;;;;;5055076;28;20511;-72
2023/08/09 11:54:09;;;;;;;2.95;1.02;;;21.40;99.70;;;;;;5054593;28;20020;-72
2023/08/09 11:56:36;;;;;;;2.80;1.30;;;21.40;97.00;;;;;;5063963;28;20033;-73
2023/08/09 11:59:05;;;;;;;4.60;1.60;;;21.40;98.20;;;;;;5054859;28;20108;-73
2023/08/09 12:01:36;;;;;;;7.30;1.77;;;21.50;99.10;;;;;;5053853;28;20021;-72
2023/08/09 12:04:07;;;;;;;2.70;0.85;;;21.50;99.30;;;;;;5053594;28;20477;-72
2023/08/09 12:06:37;;;;;;;4.53;1.35;;;21.50;98.60;;;;;;5054763;28;20076;-72
2023/08/09 12:09:30;;;;;;;4.72;1.48;;;21.50;99.50;;;;;;5046361;28;20072;-73
2023/08/09 12:12:33;;;;;;;3.78;1.20;;;21.50;99.40;;;;;;5051384;28;20378;-75
2023/08/09 12:14:59;;;;;;;5.10;1.30;;;21.50;99.10;;;;;;5047761;28;20059;-72
2023/08/09 12:17:30;;;;;;;3.08;1.17;;;21.60;99.00;;;;;;5053413;28;20030;-72
2023/08/09 12:20:01;;;;;;;3.00;0.88;;;21.60;98.90;;;;;;5051112;28;20033;-73
2023/08/09 12:22:27;;;;;;;2.90;1.00;;;21.60;98.40;;;;;;5053224;28;20056;-72
2023/08/09 12:24:54;;;;;;;3.80;0.93;;;21.60;98.30;;;;;;5053232;28;20083;-73
2023/08/09 12:27:20;;;;;;;3.50;1.23;;;21.60;97.10;;;;;;5052564;28;20052;-72
2023/08/09 12:29:49;;;;;;;2.28;0.90;;;21.60;97.10;;;;;;5051722;28;20045;-72
2023/08/09 12:32:16;;;;;;;3.17;1.08;;;21.60;97.70;;;;;;5045831;28;20032;-72
2023/08/09 12:34:42;;;;;;;4.70;0.98;;;21.70;98.10;;;;;;5052746;28;20035;-74
2023/08/09 12:37:08;;;;;;;1.95;0.93;;;21.70;96.20;;;;;;5037740;28;20120;-72
2023/08/09 12:39:34;;;;;;;4.32;1.45;;;21.70;97.00;;;;;;5034060;28;20068;-72
2023/08/09 12:42:01;;;;;;;5.72;1.27;;;21.70;95.90;;;;;;5051651;28;20059;-72
2023/08/09 12:44:26;;;;;;;1.55;0.52;;;21.70;96.10;;;;;;5050832;28;20108;-71
2023/08/09 12:46:53;;;;;;;1.92;0.70;;;21.70;95.50;;;;;;5053318;28;20100;-72
2023/08/09 12:49:19;;;;;;;1.92;0.60;;;21.70;95.10;;;;;;5053528;28;20037;-72
2023/08/09 12:51:45;;;;;;;3.17;1.00;;;21.70;95.60;;;;;;5052045;28;20029;-73